sensor_id;sensor_type;location;lat;lon;timestamp;P1;durP1;ratioP1;P2;durP2;ratioP2
48875;SDS011;34689;51.644;5.618;2022-11-15T00:00:16;6.43;;;3.63;;
48875;SDS011;34689;51.644;5.618;2022-11-15T00:02:42;6.78;;;3.67;;
48875;SDS011;34689;51.644;5.618;2022-11-15T00:05:07;7.28;;;4.28;;
48875;SDS011;34689;51.644;5.618;2022-11-15T00:07:33;7.63;;;4.80;;
48875;SDS011;34689;51.644;5.618;2022-11-15T00:09:59;8.23;;;4.55;;
48875;SDS011;34689;51.644;5.618;2022-11-15T00:12:26;10.63;;;4.22;;
48875;SDS011;34689;51.644;5.618;2022-11-15T00:14:52;6.30;;;3.75;;
48875;SDS011;34689;51.644;5.618;2022-11-15T00:17:18;6.18;;;3.70;;
48875;SDS011;34689;51.644;5.618;2022-11-15T00:19:43;7.82;;;4.88;;
48875;SDS011;34689;51.644;5.618;2022-11-15T00:22:09;8.57;;;4.25;;
48875;SDS011;34689;51.644;5.618;2022-11-15T00:24:35;12.25;;;6.90;;
48875;SDS011;34689;51.644;5.618;2022-11-15T00:27:01;6.55;;;3.78;;
48875;SDS011;34689;51.644;5.618;2022-11-15T00:29:27;4.80;;;3.05;;
48875;SDS011;34689;51.644;5.618;2022-11-15T00:31:52;6.50;;;3.65;;
48875;SDS011;34689;51.644;5.618;2022-11-15T00:34:18;6.43;;;2.78;;
48875;SDS011;34689;51.644;5.618;2022-11-15T00:36:44;6.10;;;3.88;;
48875;SDS011;34689;51.644;5.618;2022-11-15T00:39:09;5.25;;;3.58;;
48875;SDS011;34689;51.644;5.618;2022-11-15T00:41:35;4.97;;;3.22;;
48875;SDS011;34689;51.644;5.618;2022-11-15T00:44:00;5.13;;;2.88;;
48875;SDS011;34689;51.644;5.618;2022-11-15T00:46:26;5.65;;;2.85;;
48875;SDS011;34689;51.644;5.618;2022-11-15T00:48:52;7.25;;;4.03;;
48875;SDS011;34689;51.644;5.618;2022-11-15T00:51:18;5.05;;;3.13;;
48875;SDS011;34689;51.644;5.618;2022-11-15T00:53:46;6.25;;;3.65;;
48875;SDS011;34689;51.644;5.618;2022-11-15T00:56:11;4.93;;;3.08;;
48875;SDS011;34689;51.644;5.618;2022-11-15T00:58:37;4.18;;;2.47;;
48875;SDS011;34689;51.644;5.618;2022-11-15T01:01:10;3.63;;;2.53;;
48875;SDS011;34689;51.644;5.618;2022-11-15T01:03:38;4.32;;;2.65;;
48875;SDS011;34689;51.644;5.618;2022-11-15T01:06:05;4.30;;;2.90;;
48875;SDS011;34689;51.644;5.618;2022-11-15T01:08:31;6.80;;;3.97;;
48875;SDS011;34689;51.644;5.618;2022-11-15T01:11:01;5.05;;;3.20;;
48875;SDS011;34689;51.644;5.618;2022-11-15T01:13:32;4.30;;;2.55;;
48875;SDS011;34689;51.644;5.618;2022-11-15T01:15:59;5.22;;;2.72;;
48875;SDS011;34689;51.644;5.618;2022-11-15T01:18:51;5.88;;;3.60;;
48875;SDS011;34689;51.644;5.618;2022-11-15T01:21:17;7.53;;;4.13;;
48875;SDS011;34689;51.644;5.618;2022-11-15T01:23:44;5.55;;;3.60;;
48875;SDS011;34689;51.644;5.618;2022-11-15T01:26:11;2.53;;;1.65;;
48875;SDS011;34689;51.644;5.618;2022-11-15T01:28:41;2.50;;;1.67;;
48875;SDS011;34689;51.644;5.618;2022-11-15T01:31:11;6.32;;;3.72;;
48875;SDS011;34689;51.644;5.618;2022-11-15T01:33:38;5.05;;;3.13;;
48875;SDS011;34689;51.644;5.618;2022-11-15T01:36:07;5.65;;;3.72;;
48875;SDS011;34689;51.644;5.618;2022-11-15T01:38:36;6.63;;;3.72;;
48875;SDS011;34689;51.644;5.618;2022-11-15T01:41:01;3.83;;;2.45;;
48875;SDS011;34689;51.644;5.618;2022-11-15T01:43:32;4.13;;;2.42;;
48875;SDS011;34689;51.644;5.618;2022-11-15T01:46:04;5.50;;;3.23;;
48875;SDS011;34689;51.644;5.618;2022-11-15T01:48:36;5.07;;;3.15;;
48875;SDS011;34689;51.644;5.618;2022-11-15T01:51:02;4.68;;;2.55;;
48875;SDS011;34689;51.644;5.618;2022-11-15T01:53:33;4.25;;;2.83;;
48875;SDS011;34689;51.644;5.618;2022-11-15T01:56:02;5.38;;;3.15;;
48875;SDS011;34689;51.644;5.618;2022-11-15T01:58:31;3.72;;;2.40;;
48875;SDS011;34689;51.644;5.618;2022-11-15T02:00:58;4.57;;;2.75;;
48875;SDS011;34689;51.644;5.618;2022-11-15T02:03:25;5.20;;;2.97;;
48875;SDS011;34689;51.644;5.618;2022-11-15T02:05:56;4.95;;;2.38;;
48875;SDS011;34689;51.644;5.618;2022-11-15T02:08:23;6.60;;;3.10;;
48875;SDS011;34689;51.644;5.618;2022-11-15T02:10:48;3.88;;;2.78;;
48875;SDS011;34689;51.644;5.618;2022-11-15T02:13:14;4.72;;;2.45;;
48875;SDS011;34689;51.644;5.618;2022-11-15T02:16:06;4.65;;;2.83;;
48875;SDS011;34689;51.644;5.618;2022-11-15T02:18:59;4.53;;;2.67;;
48875;SDS011;34689;51.644;5.618;2022-11-15T02:21:29;4.15;;;2.75;;
48875;SDS011;34689;51.644;5.618;2022-11-15T02:24:01;2.97;;;1.77;;
48875;SDS011;34689;51.644;5.618;2022-11-15T02:32:21;4.00;;;2.97;;
48875;SDS011;34689;51.644;5.618;2022-11-15T02:38:22;4.65;;;2.08;;
48875;SDS011;34689;51.644;5.618;2022-11-15T02:43:12;4.47;;;2.83;;
48875;SDS011;34689;51.644;5.618;2022-11-15T02:49:11;3.80;;;2.28;;
48875;SDS011;34689;51.644;5.618;2022-11-15T02:51:39;4.30;;;3.28;;
48875;SDS011;34689;51.644;5.618;2022-11-15T02:54:06;3.17;;;2.05;;
48875;SDS011;34689;51.644;5.618;2022-11-15T02:56:32;3.67;;;2.10;;
48875;SDS011;34689;51.644;5.618;2022-11-15T03:04:43;4.20;;;2.72;;
48875;SDS011;34689;51.644;5.618;2022-11-15T03:07:16;3.08;;;2.13;;
48875;SDS011;34689;51.644;5.618;2022-11-15T03:12:49;3.53;;;2.42;;
48875;SDS011;34689;51.644;5.618;2022-11-15T03:15:22;5.10;;;2.95;;
48875;SDS011;34689;51.644;5.618;2022-11-15T03:20:27;4.72;;;2.92;;
48875;SDS011;34689;51.644;5.618;2022-11-15T03:23:00;6.80;;;3.17;;
48875;SDS011;34689;51.644;5.618;2022-11-15T03:25:29;3.40;;;2.50;;
48875;SDS011;34689;51.644;5.618;2022-11-15T03:28:01;8.00;;;3.72;;
48875;SDS011;34689;51.644;5.618;2022-11-15T03:30:30;2.97;;;1.58;;
48875;SDS011;34689;51.644;5.618;2022-11-15T03:33:00;6.65;;;2.60;;
48875;SDS011;34689;51.644;5.618;2022-11-15T03:35:30;4.53;;;2.03;;
48875;SDS011;34689;51.644;5.618;2022-11-15T03:43:22;3.80;;;2.80;;
48875;SDS011;34689;51.644;5.618;2022-11-15T03:46:10;4.85;;;2.88;;
48875;SDS011;34689;51.644;5.618;2022-11-15T03:48:41;5.97;;;3.53;;
48875;SDS011;34689;51.644;5.618;2022-11-15T03:51:09;4.65;;;3.28;;
48875;SDS011;34689;51.644;5.618;2022-11-15T03:53:36;5.40;;;2.75;;
48875;SDS011;34689;51.644;5.618;2022-11-15T03:56:01;3.42;;;2.55;;
48875;SDS011;34689;51.644;5.618;2022-11-15T03:58:27;4.68;;;2.72;;
48875;SDS011;34689;51.644;5.618;2022-11-15T04:00:53;3.33;;;2.22;;
48875;SDS011;34689;51.644;5.618;2022-11-15T04:03:18;4.82;;;2.83;;
48875;SDS011;34689;51.644;5.618;2022-11-15T04:05:44;4.70;;;2.90;;
48875;SDS011;34689;51.644;5.618;2022-11-15T04:08:10;4.75;;;2.60;;
48875;SDS011;34689;51.644;5.618;2022-11-15T04:10:35;3.78;;;2.92;;
48875;SDS011;34689;51.644;5.618;2022-11-15T04:13:02;3.53;;;2.10;;
48875;SDS011;34689;51.644;5.618;2022-11-15T04:15:28;4.80;;;3.17;;
48875;SDS011;34689;51.644;5.618;2022-11-15T04:17:55;3.88;;;2.42;;
48875;SDS011;34689;51.644;5.618;2022-11-15T04:20:24;3.83;;;2.50;;
48875;SDS011;34689;51.644;5.618;2022-11-15T04:23:17;4.50;;;2.75;;
48875;SDS011;34689;51.644;5.618;2022-11-15T04:26:06;5.43;;;3.90;;
48875;SDS011;34689;51.644;5.618;2022-11-15T04:28:43;3.10;;;2.05;;
48875;SDS011;34689;51.644;5.618;2022-11-15T04:31:28;4.97;;;2.78;;
48875;SDS011;34689;51.644;5.618;2022-11-15T04:33:53;4.80;;;3.13;;
48875;SDS011;34689;51.644;5.618;2022-11-15T04:36:20;4.60;;;2.60;;
48875;SDS011;34689;51.644;5.618;2022-11-15T04:39:04;3.55;;;2.15;;
48875;SDS011;34689;51.644;5.618;2022-11-15T04:41:30;3.13;;;2.08;;
48875;SDS011;34689;51.644;5.618;2022-11-15T04:43:57;3.97;;;2.40;;
48875;SDS011;34689;51.644;5.618;2022-11-15T04:46:24;3.38;;;2.28;;
48875;SDS011;34689;51.644;5.618;2022-11-15T04:48:53;4.13;;;2.83;;
48875;SDS011;34689;51.644;5.618;2022-11-15T04:51:19;3.28;;;1.63;;
48875;SDS011;34689;51.644;5.618;2022-11-15T04:53:45;3.35;;;2.15;;
48875;SDS011;34689;51.644;5.618;2022-11-15T04:56:11;4.80;;;2.75;;
48875;SDS011;34689;51.644;5.618;2022-11-15T04:58:37;3.40;;;2.22;;
48875;SDS011;34689;51.644;5.618;2022-11-15T05:01:06;4.65;;;2.63;;
48875;SDS011;34689;51.644;5.618;2022-11-15T05:03:32;4.53;;;2.90;;
48875;SDS011;34689;51.644;5.618;2022-11-15T05:06:17;5.32;;;3.03;;
48875;SDS011;34689;51.644;5.618;2022-11-15T05:08:42;4.45;;;2.67;;
48875;SDS011;34689;51.644;5.618;2022-11-15T05:11:08;4.43;;;2.50;;
48875;SDS011;34689;51.644;5.618;2022-11-15T05:13:33;5.05;;;2.75;;
48875;SDS011;34689;51.644;5.618;2022-11-15T05:15:59;3.88;;;2.10;;
48875;SDS011;34689;51.644;5.618;2022-11-15T05:18:25;3.35;;;2.08;;
48875;SDS011;34689;51.644;5.618;2022-11-15T05:20:50;3.65;;;2.22;;
48875;SDS011;34689;51.644;5.618;2022-11-15T05:23:16;4.28;;;2.78;;
48875;SDS011;34689;51.644;5.618;2022-11-15T05:25:42;2.92;;;1.80;;
48875;SDS011;34689;51.644;5.618;2022-11-15T05:28:07;3.00;;;2.25;;
48875;SDS011;34689;51.644;5.618;2022-11-15T05:30:33;3.55;;;2.47;;
48875;SDS011;34689;51.644;5.618;2022-11-15T05:32:59;3.47;;;2.58;;
48875;SDS011;34689;51.644;5.618;2022-11-15T05:35:34;3.58;;;2.35;;
48875;SDS011;34689;51.644;5.618;2022-11-15T05:38:04;5.47;;;3.30;;
48875;SDS011;34689;51.644;5.618;2022-11-15T05:40:30;4.07;;;2.38;;
48875;SDS011;34689;51.644;5.618;2022-11-15T05:42:58;2.97;;;2.10;;
48875;SDS011;34689;51.644;5.618;2022-11-15T05:45:26;2.60;;;1.65;;
48875;SDS011;34689;51.644;5.618;2022-11-15T05:47:53;4.15;;;2.50;;
48875;SDS011;34689;51.644;5.618;2022-11-15T05:50:22;3.65;;;2.58;;
48875;SDS011;34689;51.644;5.618;2022-11-15T05:52:51;5.05;;;3.28;;
48875;SDS011;34689;51.644;5.618;2022-11-15T05:55:17;3.67;;;2.55;;
48875;SDS011;34689;51.644;5.618;2022-11-15T05:57:43;4.15;;;2.10;;
48875;SDS011;34689;51.644;5.618;2022-11-15T06:00:09;4.18;;;2.58;;
48875;SDS011;34689;51.644;5.618;2022-11-15T06:02:35;3.00;;;1.92;;
48875;SDS011;34689;51.644;5.618;2022-11-15T06:05:01;6.60;;;4.20;;
48875;SDS011;34689;51.644;5.618;2022-11-15T06:07:28;6.22;;;4.00;;
48875;SDS011;34689;51.644;5.618;2022-11-15T06:09:54;3.72;;;2.35;;
48875;SDS011;34689;51.644;5.618;2022-11-15T06:12:20;3.88;;;2.17;;
48875;SDS011;34689;51.644;5.618;2022-11-15T06:14:45;3.20;;;2.15;;
48875;SDS011;34689;51.644;5.618;2022-11-15T06:17:11;3.92;;;2.55;;
48875;SDS011;34689;51.644;5.618;2022-11-15T06:19:39;5.70;;;3.40;;
48875;SDS011;34689;51.644;5.618;2022-11-15T06:22:05;2.60;;;1.77;;
48875;SDS011;34689;51.644;5.618;2022-11-15T06:24:30;2.85;;;1.88;;
48875;SDS011;34689;51.644;5.618;2022-11-15T06:26:56;3.42;;;2.13;;
48875;SDS011;34689;51.644;5.618;2022-11-15T06:29:22;2.47;;;1.80;;
48875;SDS011;34689;51.644;5.618;2022-11-15T06:31:48;6.07;;;3.38;;
48875;SDS011;34689;51.644;5.618;2022-11-15T06:34:14;3.55;;;2.33;;
48875;SDS011;34689;51.644;5.618;2022-11-15T06:36:39;4.43;;;2.85;;
48875;SDS011;34689;51.644;5.618;2022-11-15T06:39:05;3.60;;;2.85;;
48875;SDS011;34689;51.644;5.618;2022-11-15T06:41:33;3.45;;;2.53;;
48875;SDS011;34689;51.644;5.618;2022-11-15T06:43:59;3.33;;;2.03;;
48875;SDS011;34689;51.644;5.618;2022-11-15T06:46:25;3.22;;;2.33;;
48875;SDS011;34689;51.644;5.618;2022-11-15T06:48:52;3.90;;;2.33;;
48875;SDS011;34689;51.644;5.618;2022-11-15T06:51:18;3.75;;;2.65;;
48875;SDS011;34689;51.644;5.618;2022-11-15T06:53:45;3.97;;;2.28;;
48875;SDS011;34689;51.644;5.618;2022-11-15T06:56:13;4.22;;;2.97;;
48875;SDS011;34689;51.644;5.618;2022-11-15T06:58:39;4.25;;;2.13;;
48875;SDS011;34689;51.644;5.618;2022-11-15T07:01:07;3.75;;;2.22;;
48875;SDS011;34689;51.644;5.618;2022-11-15T07:03:39;19.42;;;7.22;;
48875;SDS011;34689;51.644;5.618;2022-11-15T07:06:06;12.48;;;5.53;;
48875;SDS011;34689;51.644;5.618;2022-11-15T07:08:33;6.57;;;3.60;;
48875;SDS011;34689;51.644;5.618;2022-11-15T07:11:00;8.60;;;5.53;;
48875;SDS011;34689;51.644;5.618;2022-11-15T07:13:27;8.25;;;4.60;;
48875;SDS011;34689;51.644;5.618;2022-11-15T07:15:57;3.95;;;2.65;;
48875;SDS011;34689;51.644;5.618;2022-11-15T07:18:26;6.32;;;3.80;;
48875;SDS011;34689;51.644;5.618;2022-11-15T07:20:52;4.72;;;2.80;;
48875;SDS011;34689;51.644;5.618;2022-11-15T07:23:18;6.07;;;3.63;;
48875;SDS011;34689;51.644;5.618;2022-11-15T07:25:44;3.65;;;2.28;;
48875;SDS011;34689;51.644;5.618;2022-11-15T07:28:09;5.80;;;2.88;;
48875;SDS011;34689;51.644;5.618;2022-11-15T07:30:35;2.58;;;2.13;;
48875;SDS011;34689;51.644;5.618;2022-11-15T07:33:00;5.57;;;3.30;;
48875;SDS011;34689;51.644;5.618;2022-11-15T07:35:27;4.32;;;3.03;;
48875;SDS011;34689;51.644;5.618;2022-11-15T07:38:00;4.93;;;2.67;;
48875;SDS011;34689;51.644;5.618;2022-11-15T07:40:29;3.90;;;2.75;;
48875;SDS011;34689;51.644;5.618;2022-11-15T07:43:03;5.38;;;2.78;;
48875;SDS011;34689;51.644;5.618;2022-11-15T07:45:30;2.88;;;1.98;;
48875;SDS011;34689;51.644;5.618;2022-11-15T07:47:58;2.60;;;1.63;;
48875;SDS011;34689;51.644;5.618;2022-11-15T07:50:24;2.85;;;2.00;;
48875;SDS011;34689;51.644;5.618;2022-11-15T07:52:54;3.17;;;2.28;;
48875;SDS011;34689;51.644;5.618;2022-11-15T07:55:21;3.47;;;2.28;;
48875;SDS011;34689;51.644;5.618;2022-11-15T07:57:47;3.50;;;2.45;;
48875;SDS011;34689;51.644;5.618;2022-11-15T08:00:13;2.53;;;1.67;;
48875;SDS011;34689;51.644;5.618;2022-11-15T08:02:39;4.53;;;2.38;;
48875;SDS011;34689;51.644;5.618;2022-11-15T08:05:05;6.43;;;3.30;;
48875;SDS011;34689;51.644;5.618;2022-11-15T08:07:31;4.68;;;3.25;;
48875;SDS011;34689;51.644;5.618;2022-11-15T08:09:57;3.10;;;2.15;;
48875;SDS011;34689;51.644;5.618;2022-11-15T08:12:23;5.97;;;3.13;;
48875;SDS011;34689;51.644;5.618;2022-11-15T08:14:56;4.82;;;3.08;;
48875;SDS011;34689;51.644;5.618;2022-11-15T08:17:22;4.82;;;2.90;;
48875;SDS011;34689;51.644;5.618;2022-11-15T08:19:48;5.63;;;2.80;;
48875;SDS011;34689;51.644;5.618;2022-11-15T08:22:14;6.50;;;2.95;;
48875;SDS011;34689;51.644;5.618;2022-11-15T08:24:40;4.30;;;2.95;;
48875;SDS011;34689;51.644;5.618;2022-11-15T08:27:05;4.47;;;2.83;;
48875;SDS011;34689;51.644;5.618;2022-11-15T08:29:39;4.53;;;2.80;;
48875;SDS011;34689;51.644;5.618;2022-11-15T08:32:08;3.42;;;2.45;;
48875;SDS011;34689;51.644;5.618;2022-11-15T08:34:34;4.07;;;2.75;;
48875;SDS011;34689;51.644;5.618;2022-11-15T08:36:59;3.78;;;2.15;;
48875;SDS011;34689;51.644;5.618;2022-11-15T08:39:27;5.45;;;2.85;;
48875;SDS011;34689;51.644;5.618;2022-11-15T08:41:53;4.57;;;2.67;;
48875;SDS011;34689;51.644;5.618;2022-11-15T08:44:19;6.90;;;3.17;;
48875;SDS011;34689;51.644;5.618;2022-11-15T08:46:48;2.97;;;2.17;;
48875;SDS011;34689;51.644;5.618;2022-11-15T08:49:16;1.88;;;1.42;;
48875;SDS011;34689;51.644;5.618;2022-11-15T08:51:41;4.97;;;2.35;;
48875;SDS011;34689;51.644;5.618;2022-11-15T08:54:07;3.28;;;1.98;;
48875;SDS011;34689;51.644;5.618;2022-11-15T08:56:33;3.58;;;2.17;;
48875;SDS011;34689;51.644;5.618;2022-11-15T08:58:59;2.35;;;1.40;;
48875;SDS011;34689;51.644;5.618;2022-11-15T09:01:25;2.33;;;1.75;;
48875;SDS011;34689;51.644;5.618;2022-11-15T09:03:50;5.00;;;2.63;;
48875;SDS011;34689;51.644;5.618;2022-11-15T09:06:16;3.75;;;2.28;;
48875;SDS011;34689;51.644;5.618;2022-11-15T09:08:42;3.55;;;2.10;;
48875;SDS011;34689;51.644;5.618;2022-11-15T09:11:08;3.38;;;2.20;;
48875;SDS011;34689;51.644;5.618;2022-11-15T09:13:35;5.18;;;1.63;;
48875;SDS011;34689;51.644;5.618;2022-11-15T09:16:02;2.92;;;1.80;;
48875;SDS011;34689;51.644;5.618;2022-11-15T09:18:28;2.78;;;1.50;;
48875;SDS011;34689;51.644;5.618;2022-11-15T09:20:55;2.88;;;1.52;;
48875;SDS011;34689;51.644;5.618;2022-11-15T09:23:25;1.52;;;1.02;;
48875;SDS011;34689;51.644;5.618;2022-11-15T09:25:51;2.08;;;1.73;;
48875;SDS011;34689;51.644;5.618;2022-11-15T09:28:22;2.10;;;1.42;;
48875;SDS011;34689;51.644;5.618;2022-11-15T09:30:48;3.53;;;1.85;;
48875;SDS011;34689;51.644;5.618;2022-11-15T09:33:14;3.53;;;1.75;;
48875;SDS011;34689;51.644;5.618;2022-11-15T09:35:39;2.40;;;1.63;;
48875;SDS011;34689;51.644;5.618;2022-11-15T09:38:06;1.95;;;1.27;;
48875;SDS011;34689;51.644;5.618;2022-11-15T09:40:35;2.72;;;1.58;;
48875;SDS011;34689;51.644;5.618;2022-11-15T09:43:11;3.45;;;2.22;;
48875;SDS011;34689;51.644;5.618;2022-11-15T09:49:06;2.38;;;1.73;;
48875;SDS011;34689;51.644;5.618;2022-11-15T09:51:35;3.03;;;1.52;;
48875;SDS011;34689;51.644;5.618;2022-11-15T09:54:13;2.85;;;1.80;;
48875;SDS011;34689;51.644;5.618;2022-11-15T09:56:53;2.70;;;1.73;;
48875;SDS011;34689;51.644;5.618;2022-11-15T09:59:33;2.97;;;1.17;;
48875;SDS011;34689;51.644;5.618;2022-11-15T10:02:12;1.80;;;1.40;;
48875;SDS011;34689;51.644;5.618;2022-11-15T10:04:48;1.65;;;1.33;;
48875;SDS011;34689;51.644;5.618;2022-11-15T10:09:54;2.55;;;0.90;;
48875;SDS011;34689;51.644;5.618;2022-11-15T10:12:28;1.27;;;1.00;;
48875;SDS011;34689;51.644;5.618;2022-11-15T10:15:06;1.60;;;0.95;;
48875;SDS011;34689;51.644;5.618;2022-11-15T10:17:55;1.98;;;1.05;;
48875;SDS011;34689;51.644;5.618;2022-11-15T10:20:41;1.67;;;1.10;;
48875;SDS011;34689;51.644;5.618;2022-11-15T10:23:13;1.55;;;1.10;;
48875;SDS011;34689;51.644;5.618;2022-11-15T10:25:40;2.30;;;0.98;;
48875;SDS011;34689;51.644;5.618;2022-11-15T10:28:22;1.52;;;1.17;;
48875;SDS011;34689;51.644;5.618;2022-11-15T10:30:51;1.35;;;0.80;;
48875;SDS011;34689;51.644;5.618;2022-11-15T10:41:14;0.90;;;0.70;;
48875;SDS011;34689;51.644;5.618;2022-11-15T10:43:41;1.90;;;0.88;;
48875;SDS011;34689;51.644;5.618;2022-11-15T10:46:20;1.95;;;0.88;;
48875;SDS011;34689;51.644;5.618;2022-11-15T10:48:47;2.55;;;0.68;;
48875;SDS011;34689;51.644;5.618;2022-11-15T10:51:25;1.00;;;0.50;;
48875;SDS011;34689;51.644;5.618;2022-11-15T10:53:54;0.73;;;0.52;;
48875;SDS011;34689;51.644;5.618;2022-11-15T10:56:22;1.95;;;0.57;;
48875;SDS011;34689;51.644;5.618;2022-11-15T10:58:51;1.27;;;0.60;;
48875;SDS011;34689;51.644;5.618;2022-11-15T11:01:28;0.98;;;0.50;;
48875;SDS011;34689;51.644;5.618;2022-11-15T11:03:58;0.40;;;0.40;;
48875;SDS011;34689;51.644;5.618;2022-11-15T11:06:26;1.48;;;0.45;;
48875;SDS011;34689;51.644;5.618;2022-11-15T11:11:46;0.57;;;0.40;;
48875;SDS011;34689;51.644;5.618;2022-11-15T11:14:56;5.95;;;0.98;;
48875;SDS011;34689;51.644;5.618;2022-11-15T11:36:38;2.35;;;0.60;;
48875;SDS011;34689;51.644;5.618;2022-11-15T11:44:46;1.75;;;0.43;;
48875;SDS011;34689;51.644;5.618;2022-11-15T11:47:23;2.20;;;1.55;;
48875;SDS011;34689;51.644;5.618;2022-11-15T11:49:54;0.73;;;0.40;;
48875;SDS011;34689;51.644;5.618;2022-11-15T12:00:15;1.00;;;0.32;;
48875;SDS011;34689;51.644;5.618;2022-11-15T12:05:48;0.93;;;0.40;;
48875;SDS011;34689;51.644;5.618;2022-11-15T12:11:43;1.38;;;0.63;;
48875;SDS011;34689;51.644;5.618;2022-11-15T12:14:01;1.35;;;0.43;;
48875;SDS011;34689;51.644;5.618;2022-11-15T12:16:33;1.17;;;0.47;;
48875;SDS011;34689;51.644;5.618;2022-11-15T12:18:59;1.90;;;0.40;;
48875;SDS011;34689;51.644;5.618;2022-11-15T12:24:07;0.68;;;0.40;;
48875;SDS011;34689;51.644;5.618;2022-11-15T12:26:57;1.08;;;0.50;;
48875;SDS011;34689;51.644;5.618;2022-11-15T12:29:40;2.58;;;0.73;;
48875;SDS011;34689;51.644;5.618;2022-11-15T12:34:57;0.52;;;0.20;;
48875;SDS011;34689;51.644;5.618;2022-11-15T12:42:42;2.97;;;0.50;;
48875;SDS011;34689;51.644;5.618;2022-11-15T12:45:32;0.93;;;0.43;;
48875;SDS011;34689;51.644;5.618;2022-11-15T13:06:50;2.17;;;0.63;;
48875;SDS011;34689;51.644;5.618;2022-11-15T13:11:57;0.52;;;0.10;;
48875;SDS011;34689;51.644;5.618;2022-11-15T13:17:35;1.85;;;0.40;;
48875;SDS011;34689;51.644;5.618;2022-11-15T13:27:47;0.35;;;0.20;;
48875;SDS011;34689;51.644;5.618;2022-11-15T13:30:21;0.43;;;0.20;;
48875;SDS011;34689;51.644;5.618;2022-11-15T13:32:50;0.68;;;0.25;;
48875;SDS011;34689;51.644;5.618;2022-11-15T13:35:20;1.40;;;0.28;;
48875;SDS011;34689;51.644;5.618;2022-11-15T13:37:50;0.50;;;0.20;;
48875;SDS011;34689;51.644;5.618;2022-11-15T13:43:13;0.40;;;0.20;;
48875;SDS011;34689;51.644;5.618;2022-11-15T13:45:45;1.02;;;0.47;;
48875;SDS011;34689;51.644;5.618;2022-11-15T13:48:29;0.25;;;0.20;;
48875;SDS011;34689;51.644;5.618;2022-11-15T13:50:54;0.50;;;0.28;;
48875;SDS011;34689;51.644;5.618;2022-11-15T13:53:22;1.15;;;0.30;;
48875;SDS011;34689;51.644;5.618;2022-11-15T13:55:48;1.00;;;0.25;;
48875;SDS011;34689;51.644;5.618;2022-11-15T13:58:14;0.98;;;0.43;;
48875;SDS011;34689;51.644;5.618;2022-11-15T14:00:43;1.98;;;0.22;;
48875;SDS011;34689;51.644;5.618;2022-11-15T14:03:26;0.47;;;0.20;;
48875;SDS011;34689;51.644;5.618;2022-11-15T14:08:31;1.45;;;0.20;;
48875;SDS011;34689;51.644;5.618;2022-11-15T14:11:06;0.82;;;0.10;;
48875;SDS011;34689;51.644;5.618;2022-11-15T14:13:33;1.00;;;0.10;;
48875;SDS011;34689;51.644;5.618;2022-11-15T14:16:18;0.17;;;0.13;;
48875;SDS011;34689;51.644;5.618;2022-11-15T14:18:52;1.20;;;0.45;;
48875;SDS011;34689;51.644;5.618;2022-11-15T14:23:46;0.17;;;0.15;;
48875;SDS011;34689;51.644;5.618;2022-11-15T14:31:52;3.42;;;0.43;;
48875;SDS011;34689;51.644;5.618;2022-11-15T14:34:19;1.35;;;0.20;;
48875;SDS011;34689;51.644;5.618;2022-11-15T14:36:47;2.80;;;0.68;;
48875;SDS011;34689;51.644;5.618;2022-11-15T14:39:13;2.97;;;0.30;;
48875;SDS011;34689;51.644;5.618;2022-11-15T14:41:38;0.55;;;0.30;;
48875;SDS011;34689;51.644;5.618;2022-11-15T14:44:04;0.40;;;0.32;;
48875;SDS011;34689;51.644;5.618;2022-11-15T14:46:31;1.13;;;0.70;;
48875;SDS011;34689;51.644;5.618;2022-11-15T14:48:57;0.65;;;0.45;;
48875;SDS011;34689;51.644;5.618;2022-11-15T14:51:23;0.20;;;0.20;;
48875;SDS011;34689;51.644;5.618;2022-11-15T14:53:51;0.50;;;0.20;;
48875;SDS011;34689;51.644;5.618;2022-11-15T14:56:17;0.47;;;0.30;;
48875;SDS011;34689;51.644;5.618;2022-11-15T14:58:42;2.63;;;0.20;;
48875;SDS011;34689;51.644;5.618;2022-11-15T15:01:19;1.38;;;0.30;;
48875;SDS011;34689;51.644;5.618;2022-11-15T15:03:48;0.93;;;0.30;;
48875;SDS011;34689;51.644;5.618;2022-11-15T15:06:16;1.77;;;0.20;;
48875;SDS011;34689;51.644;5.618;2022-11-15T15:08:42;0.88;;;0.65;;
48875;SDS011;34689;51.644;5.618;2022-11-15T15:11:13;0.50;;;0.30;;
48875;SDS011;34689;51.644;5.618;2022-11-15T15:13:41;3.13;;;0.65;;
48875;SDS011;34689;51.644;5.618;2022-11-15T15:16:06;0.10;;;0.10;;
48875;SDS011;34689;51.644;5.618;2022-11-15T15:18:32;1.80;;;0.50;;
48875;SDS011;34689;51.644;5.618;2022-11-15T15:20:58;2.00;;;0.30;;
48875;SDS011;34689;51.644;5.618;2022-11-15T15:23:27;0.80;;;0.30;;
48875;SDS011;34689;51.644;5.618;2022-11-15T15:25:55;0.20;;;0.13;;
48875;SDS011;34689;51.644;5.618;2022-11-15T15:28:22;2.28;;;0.40;;
48875;SDS011;34689;51.644;5.618;2022-11-15T15:30:48;1.98;;;0.38;;
48875;SDS011;34689;51.644;5.618;2022-11-15T15:33:14;1.50;;;0.45;;
48875;SDS011;34689;51.644;5.618;2022-11-15T15:35:40;3.28;;;0.38;;
48875;SDS011;34689;51.644;5.618;2022-11-15T15:38:08;1.73;;;0.65;;
48875;SDS011;34689;51.644;5.618;2022-11-15T15:40:37;0.35;;;0.30;;
48875;SDS011;34689;51.644;5.618;2022-11-15T15:43:02;0.17;;;0.10;;
48875;SDS011;34689;51.644;5.618;2022-11-15T15:45:28;2.50;;;0.60;;
48875;SDS011;34689;51.644;5.618;2022-11-15T15:47:55;0.63;;;0.30;;
48875;SDS011;34689;51.644;5.618;2022-11-15T15:50:25;2.08;;;0.35;;
48875;SDS011;34689;51.644;5.618;2022-11-15T15:52:53;1.10;;;0.20;;
48875;SDS011;34689;51.644;5.618;2022-11-15T15:55:21;1.95;;;0.35;;
48875;SDS011;34689;51.644;5.618;2022-11-15T15:57:47;1.55;;;0.30;;
48875;SDS011;34689;51.644;5.618;2022-11-15T16:00:13;3.75;;;0.47;;
48875;SDS011;34689;51.644;5.618;2022-11-15T16:02:40;1.35;;;0.50;;
48875;SDS011;34689;51.644;5.618;2022-11-15T16:05:06;0.75;;;0.60;;
48875;SDS011;34689;51.644;5.618;2022-11-15T16:07:32;1.65;;;0.40;;
48875;SDS011;34689;51.644;5.618;2022-11-15T16:09:58;0.63;;;0.20;;
48875;SDS011;34689;51.644;5.618;2022-11-15T16:14:52;0.93;;;0.22;;
48875;SDS011;34689;51.644;5.618;2022-11-15T16:17:19;2.83;;;0.40;;
48875;SDS011;34689;51.644;5.618;2022-11-15T16:19:46;0.40;;;0.13;;
48875;SDS011;34689;51.644;5.618;2022-11-15T16:22:12;0.80;;;0.40;;
48875;SDS011;34689;51.644;5.618;2022-11-15T16:24:37;1.58;;;0.60;;
48875;SDS011;34689;51.644;5.618;2022-11-15T16:27:03;1.23;;;0.35;;
48875;SDS011;34689;51.644;5.618;2022-11-15T16:29:29;0.98;;;0.30;;
48875;SDS011;34689;51.644;5.618;2022-11-15T16:31:55;1.67;;;0.45;;
48875;SDS011;34689;51.644;5.618;2022-11-15T16:34:21;0.38;;;0.25;;
48875;SDS011;34689;51.644;5.618;2022-11-15T16:36:46;1.02;;;0.40;;
48875;SDS011;34689;51.644;5.618;2022-11-15T16:39:12;2.03;;;0.50;;
48875;SDS011;34689;51.644;5.618;2022-11-15T16:41:38;0.60;;;0.40;;
48875;SDS011;34689;51.644;5.618;2022-11-15T16:44:05;0.98;;;0.50;;
48875;SDS011;34689;51.644;5.618;2022-11-15T16:46:31;2.72;;;0.45;;
48875;SDS011;34689;51.644;5.618;2022-11-15T16:48:56;2.08;;;0.35;;
48875;SDS011;34689;51.644;5.618;2022-11-15T16:51:25;0.55;;;0.20;;
48875;SDS011;34689;51.644;5.618;2022-11-15T16:53:50;2.17;;;0.50;;
48875;SDS011;34689;51.644;5.618;2022-11-15T16:58:45;3.17;;;0.50;;
48875;SDS011;34689;51.644;5.618;2022-11-15T17:01:22;0.73;;;0.45;;
48875;SDS011;34689;51.644;5.618;2022-11-15T17:04:02;0.20;;;0.20;;
48875;SDS011;34689;51.644;5.618;2022-11-15T17:06:40;4.22;;;0.70;;
48875;SDS011;34689;51.644;5.618;2022-11-15T17:09:10;2.50;;;0.75;;
48875;SDS011;34689;51.644;5.618;2022-11-15T17:11:39;0.60;;;0.40;;
48875;SDS011;34689;51.644;5.618;2022-11-15T17:14:06;1.65;;;0.52;;
48875;SDS011;34689;51.644;5.618;2022-11-15T17:16:31;3.13;;;1.25;;
48875;SDS011;34689;51.644;5.618;2022-11-15T17:18:58;4.03;;;0.80;;
48875;SDS011;34689;51.644;5.618;2022-11-15T17:21:24;2.55;;;0.60;;
48875;SDS011;34689;51.644;5.618;2022-11-15T17:23:52;3.00;;;0.95;;
48875;SDS011;34689;51.644;5.618;2022-11-15T17:26:18;1.38;;;0.65;;